createdAt,value
2022-10-16T00:00:14.283Z,95373.81
2022-10-16T00:01:14.097Z,95324.09
2022-10-16T00:02:10.818Z,95364.34
2022-10-16T00:03:08.430Z,95377.53
2022-10-16T00:04:05.361Z,95396.91
2022-10-16T00:05:02.036Z,95380.16
2022-10-16T00:06:01.777Z,95385.47
2022-10-16T00:06:58.484Z,95328.41
2022-10-16T00:07:55.265Z,95382.47
2022-10-16T00:08:52.887Z,95304.44
2022-10-16T00:09:49.695Z,95373.44
2022-10-16T00:10:46.377Z,95396.00
2022-10-16T00:11:43.307Z,95386.97
2022-10-16T00:12:40.024Z,95346.16
2022-10-16T00:13:38.651Z,95241.81
2022-10-16T00:14:35.390Z,95377.66
2022-10-16T00:15:37.221Z,95301.47
2022-10-16T00:16:35.009Z,95372.03
2022-10-16T00:17:31.819Z,95380.25
2022-10-16T00:18:29.368Z,95177.78
2022-10-16T00:19:26.034Z,95379.63
2022-10-16T00:20:22.714Z,95384.31
2022-10-16T00:21:22.771Z,95351.81
2022-10-16T00:22:19.508Z,95381.25
2022-10-16T00:23:16.558Z,95358.88
2022-10-16T00:24:13.503Z,95355.41
2022-10-16T00:25:10.517Z,95392.34
2022-10-16T00:26:10.713Z,95321.50
2022-10-16T00:27:07.405Z,95332.31
2022-10-16T00:28:04.189Z,95395.13
2022-10-16T00:29:00.976Z,95402.91
2022-10-16T00:30:59.930Z,95396.41
2022-10-16T00:31:56.669Z,95395.22
2022-10-16T00:32:53.354Z,95397.25
2022-10-16T00:33:50.801Z,95388.56
2022-10-16T00:34:47.858Z,95406.53
2022-10-16T00:35:44.755Z,95409.06
2022-10-16T00:36:41.451Z,95405.69
2022-10-16T00:37:38.188Z,95391.22
2022-10-16T00:38:35.480Z,95401.63
2022-10-16T00:39:32.142Z,95312.34
2022-10-16T00:40:29.336Z,95403.28
2022-10-16T00:41:26.707Z,95415.53
2022-10-16T00:42:23.715Z,95396.91
2022-10-16T00:43:41.141Z,95378.50
2022-10-16T00:44:57.699Z,95238.13
2022-10-16T00:45:54.474Z,95383.00
2022-10-16T00:46:52.051Z,95347.06
2022-10-16T00:47:52.478Z,95395.50
2022-10-16T00:49:00.692Z,95375.47
2022-10-16T00:50:14.989Z,95325.41
2022-10-16T00:51:11.943Z,95379.50
2022-10-16T00:52:09.105Z,95379.97
2022-10-16T00:53:05.954Z,95359.88
2022-10-16T00:54:07.417Z,95380.63
2022-10-16T00:55:07.247Z,95401.97
2022-10-16T00:56:04.923Z,95358.97
2022-10-16T00:57:05.976Z,95388.88
2022-10-16T00:58:02.700Z,95383.75
2022-10-16T00:59:04.789Z,95403.94
2022-10-16T01:00:03.611Z,95306.34
2022-10-16T01:01:00.545Z,95400.34
2022-10-16T01:01:59.330Z,95352.72
2022-10-16T01:02:58.679Z,95373.50
2022-10-16T01:03:55.357Z,95218.59
2022-10-16T01:04:55.388Z,95385.88
2022-10-16T01:06:16.008Z,95388.75
2022-10-16T01:07:25.799Z,95383.59
2022-10-16T01:08:36.298Z,95366.47
2022-10-16T01:10:10.355Z,95384.03
2022-10-16T01:11:25.727Z,95390.16
2022-10-16T01:12:51.834Z,95392.81
2022-10-16T01:13:55.986Z,95380.03
2022-10-16T01:15:11.484Z,95351.06
2022-10-16T01:16:10.925Z,95390.41
2022-10-16T01:17:34.027Z,95385.28
2022-10-16T01:18:42.742Z,95387.66
2022-10-16T01:19:39.425Z,95383.75
2022-10-16T01:21:11.661Z,95379.72
2022-10-16T01:22:10.738Z,95382.16
2022-10-16T01:23:37.305Z,95382.78
2022-10-16T01:24:41.019Z,95379.03
2022-10-16T01:25:43.666Z,95378.59
2022-10-16T01:27:12.232Z,95362.94
2022-10-16T01:28:14.218Z,95346.84
2022-10-16T01:29:24.921Z,95370.19
2022-10-16T01:30:30.106Z,95385.66
2022-10-16T01:31:32.944Z,95391.78
2022-10-16T01:32:42.967Z,95291.06
2022-10-16T01:33:46.167Z,95337.09
2022-10-16T01:34:51.930Z,95388.88
2022-10-16T01:36:08.034Z,95334.59
2022-10-16T01:37:15.524Z,95401.00
2022-10-16T01:38:18.097Z,95382.56
2022-10-16T01:39:21.250Z,95408.25
2022-10-16T01:40:21.989Z,95387.59
2022-10-16T01:41:39.988Z,95413.34
2022-10-16T01:42:47.383Z,95388.81
2022-10-16T01:43:54.199Z,95207.38
2022-10-16T01:44:54.062Z,95387.31
2022-10-16T01:45:51.030Z,95405.53
2022-10-16T01:46:52.792Z,95404.34
2022-10-16T01:47:52.658Z,95410.81
2022-10-16T01:48:52.997Z,95350.00
2022-10-16T01:49:52.422Z,95416.69
2022-10-16T01:51:02.137Z,95379.22
2022-10-16T01:52:04.198Z,95418.84
2022-10-16T01:53:05.716Z,95265.34
2022-10-16T01:54:05.218Z,95260.00
2022-10-16T01:55:06.340Z,95225.72
2022-10-16T01:56:09.590Z,95414.97
2022-10-16T01:57:09.838Z,95392.75
2022-10-16T01:58:10.070Z,95316.88
2022-10-16T01:59:12.763Z,95362.69
2022-10-16T02:00:14.750Z,95371.75
2022-10-16T02:02:21.449Z,95434.63
2022-10-16T02:03:20.915Z,95410.28
2022-10-16T02:04:38.634Z,95404.59
2022-10-16T02:05:39.889Z,95413.97
2022-10-16T02:06:37.036Z,95433.47
2022-10-16T02:07:33.852Z,95429.59
2022-10-16T02:08:32.265Z,95387.91
2022-10-16T02:09:31.598Z,95364.69
2022-10-16T02:10:32.547Z,95421.78
2022-10-16T02:11:29.771Z,95428.75
2022-10-16T02:12:34.079Z,95430.13
2022-10-16T02:13:49.515Z,95415.84
2022-10-16T02:14:46.198Z,95441.34
2022-10-16T02:15:43.050Z,95370.34
2022-10-16T02:16:43.398Z,95361.50
2022-10-16T02:17:40.205Z,95436.53
2022-10-16T02:18:37.083Z,95422.28
2022-10-16T02:19:33.816Z,95444.06
2022-10-16T02:20:37.833Z,95428.34
2022-10-16T02:21:50.739Z,95421.56
2022-10-16T02:22:51.422Z,95426.63
2022-10-16T02:24:18.822Z,95355.38
2022-10-16T02:25:31.161Z,95425.84
2022-10-16T02:26:43.864Z,95424.50
2022-10-16T02:28:07.024Z,95423.63
2022-10-16T02:29:11.977Z,95431.72
2022-10-16T02:30:29.944Z,95461.34
2022-10-16T02:31:35.151Z,95477.75
2022-10-16T02:32:35.610Z,95395.59
2022-10-16T02:33:34.971Z,95430.84
2022-10-16T02:34:34.778Z,95399.72
2022-10-16T02:35:33.465Z,95475.72
2022-10-16T02:36:30.953Z,95422.72
2022-10-16T02:37:29.636Z,95403.94
2022-10-16T02:38:27.862Z,95373.44
2022-10-16T02:39:27.365Z,95447.97
2022-10-16T02:40:25.571Z,95421.41
2022-10-16T02:41:24.750Z,95375.81
2022-10-16T02:42:21.435Z,95365.41
2022-10-16T02:43:18.678Z,95422.50
2022-10-16T02:44:15.383Z,95447.16
2022-10-16T02:45:12.547Z,95409.81
2022-10-16T02:46:09.275Z,95441.22
2022-10-16T02:47:06.098Z,95433.59
2022-10-16T02:48:03.087Z,95445.22
2022-10-16T02:48:59.757Z,95359.50
2022-10-16T02:49:56.495Z,95456.16
2022-10-16T02:50:53.190Z,95431.16
2022-10-16T02:51:49.900Z,95230.94
2022-10-16T02:52:46.702Z,95462.81
2022-10-16T02:53:43.381Z,95481.63
2022-10-16T02:54:40.070Z,95397.41
2022-10-16T02:55:36.746Z,95458.34
2022-10-16T02:56:33.485Z,95441.56
2022-10-16T02:57:30.341Z,95460.47
2022-10-16T02:58:27.052Z,95459.50
2022-10-16T02:59:23.731Z,95444.69
2022-10-16T03:00:20.613Z,95429.91
2022-10-16T03:01:17.889Z,95458.53
2022-10-16T03:02:14.773Z,95459.28
2022-10-16T03:03:11.457Z,95474.91
2022-10-16T03:04:08.160Z,95478.13
2022-10-16T03:05:05.757Z,95380.44
2022-10-16T03:06:03.804Z,95465.66
2022-10-16T03:07:00.529Z,95438.97
2022-10-16T03:07:57.203Z,95465.91
2022-10-16T03:08:53.950Z,95466.25
2022-10-16T03:09:50.653Z,95449.09
2022-10-16T03:10:47.348Z,95447.38
2022-10-16T03:11:44.025Z,95459.38
2022-10-16T03:12:40.705Z,95449.81
2022-10-16T03:13:37.606Z,95446.47
2022-10-16T03:14:35.150Z,95458.16
2022-10-16T03:15:31.980Z,95431.75
2022-10-16T03:16:28.746Z,95440.56
2022-10-16T03:17:26.630Z,95456.50
2022-10-16T03:18:23.734Z,95429.41
2022-10-16T03:19:20.538Z,95410.47
2022-10-16T03:20:17.284Z,95460.06
2022-10-16T03:21:13.960Z,95474.28
2022-10-16T03:22:10.671Z,95319.38
2022-10-16T03:23:09.134Z,95402.06
2022-10-16T03:24:06.244Z,95457.72
2022-10-16T03:25:03.172Z,95403.63
2022-10-16T03:26:00.107Z,95459.84
2022-10-16T03:26:56.816Z,95468.09
2022-10-16T03:27:53.570Z,95438.84
2022-10-16T03:28:50.306Z,95453.22
2022-10-16T03:29:47.088Z,95387.38
2022-10-16T03:30:45.160Z,95413.00
2022-10-16T03:31:41.842Z,95476.53
2022-10-16T03:32:38.540Z,95506.00
2022-10-16T03:33:35.249Z,95429.88
2022-10-16T03:34:31.953Z,95466.97
2022-10-16T03:35:28.808Z,95461.91
2022-10-16T03:36:25.520Z,95470.94
2022-10-16T03:37:22.285Z,95409.28
2022-10-16T03:38:18.950Z,95425.97
2022-10-16T03:39:15.759Z,95393.78
2022-10-16T03:40:12.685Z,95326.78
2022-10-16T03:41:09.362Z,95469.44
2022-10-16T03:42:06.154Z,95475.91
2022-10-16T03:43:02.954Z,95459.56
2022-10-16T03:43:59.710Z,95461.00
2022-10-16T03:44:56.416Z,95464.53
2022-10-16T03:45:53.106Z,95467.22
2022-10-16T03:46:49.806Z,95449.00
2022-10-16T03:47:46.513Z,95458.28
2022-10-16T03:48:43.189Z,95440.72
2022-10-16T03:49:39.902Z,95464.34
2022-10-16T03:50:36.622Z,95400.91
2022-10-16T03:51:33.358Z,95464.19
2022-10-16T03:52:30.062Z,95480.25
2022-10-16T03:53:26.781Z,95453.91
2022-10-16T03:54:23.515Z,95464.00
2022-10-16T03:55:20.198Z,95440.53
2022-10-16T03:56:16.886Z,95464.34
2022-10-16T03:57:13.586Z,95455.25
2022-10-16T03:58:10.425Z,95427.81
2022-10-16T03:59:07.114Z,95450.91
2022-10-16T04:00:04.450Z,95448.19
2022-10-16T04:01:01.202Z,95417.53
2022-10-16T04:01:57.866Z,95417.72
2022-10-16T04:02:54.714Z,95400.03
2022-10-16T04:03:51.429Z,95404.28
2022-10-16T04:04:48.106Z,95468.22
2022-10-16T04:05:44.769Z,95462.91
2022-10-16T04:06:41.514Z,95463.28
2022-10-16T04:07:38.733Z,95463.47
2022-10-16T04:08:37.523Z,95438.28
2022-10-16T04:09:34.614Z,95473.47
2022-10-16T04:10:31.311Z,95479.88
2022-10-16T04:11:28.442Z,95450.44
2022-10-16T04:12:25.361Z,95416.72
2022-10-16T04:13:22.191Z,95451.28
2022-10-16T04:14:18.898Z,95437.38
2022-10-16T04:15:15.686Z,95477.63
2022-10-16T04:16:12.454Z,95468.78
2022-10-16T04:17:09.178Z,95474.66
2022-10-16T04:18:06.934Z,95318.84
2022-10-16T04:19:04.147Z,95481.63
2022-10-16T04:20:00.837Z,95408.75
2022-10-16T04:20:57.529Z,95411.19
2022-10-16T04:21:54.225Z,95474.56
2022-10-16T04:22:50.982Z,95418.25
2022-10-16T04:23:47.659Z,95413.91
2022-10-16T04:24:44.337Z,95480.25
2022-10-16T04:25:42.163Z,95427.06
2022-10-16T04:26:39.182Z,95443.41
2022-10-16T04:27:35.924Z,95441.59
2022-10-16T04:28:32.631Z,95481.75
2022-10-16T04:29:29.355Z,95491.34
2022-10-16T04:30:26.156Z,95403.16
2022-10-16T04:31:23.380Z,95173.88
2022-10-16T04:32:20.057Z,95413.91
2022-10-16T04:33:16.828Z,95441.81
2022-10-16T04:34:13.534Z,95447.66
2022-10-16T04:35:10.226Z,95462.31
2022-10-16T04:36:06.915Z,95311.81
2022-10-16T04:37:03.635Z,95484.41
2022-10-16T04:38:00.371Z,95437.81
2022-10-16T04:38:57.125Z,95426.38
2022-10-16T04:39:54.577Z,95460.84
2022-10-16T04:40:51.490Z,95472.41
2022-10-16T04:41:48.171Z,95481.69
2022-10-16T04:42:44.982Z,95449.31
2022-10-16T04:43:41.715Z,95445.50
2022-10-16T04:44:38.390Z,95488.94
2022-10-16T04:45:35.105Z,95456.59
2022-10-16T04:46:31.810Z,95438.44
2022-10-16T04:47:28.820Z,95432.47
2022-10-16T04:48:25.712Z,95457.34
2022-10-16T04:49:22.497Z,95423.44
2022-10-16T04:50:19.186Z,95467.25
2022-10-16T04:51:15.916Z,95486.25
2022-10-16T04:52:12.610Z,95452.31
2022-10-16T04:53:09.599Z,95458.47
2022-10-16T04:54:06.310Z,95352.72
2022-10-16T04:55:03.844Z,95449.28
2022-10-16T04:56:00.537Z,95341.22
2022-10-16T04:56:57.207Z,95503.28
2022-10-16T04:57:53.898Z,95429.31
2022-10-16T04:58:50.649Z,95505.16
2022-10-16T04:59:47.373Z,95487.28
2022-10-16T05:00:45.418Z,95501.28
2022-10-16T05:01:42.293Z,95434.38
2022-10-16T05:02:39.090Z,95506.88
2022-10-16T05:03:35.905Z,95463.81
2022-10-16T05:04:32.613Z,95515.09
2022-10-16T05:05:29.301Z,95507.69
2022-10-16T05:06:25.973Z,95512.59
2022-10-16T05:07:22.758Z,95423.28
2022-10-16T05:08:19.577Z,95499.03
2022-10-16T05:09:16.271Z,95497.56
2022-10-16T05:10:12.986Z,95509.41
2022-10-16T05:11:09.641Z,95501.91
2022-10-16T05:12:06.316Z,95504.53
2022-10-16T05:13:03.010Z,95469.16
2022-10-16T05:13:59.765Z,95493.88
2022-10-16T05:14:59.630Z,95404.00
2022-10-16T05:15:56.559Z,95501.22
2022-10-16T05:16:53.335Z,95509.78
2022-10-16T05:17:53.870Z,95386.94
2022-10-16T05:18:53.212Z,95521.97
2022-10-16T05:19:52.849Z,95508.25
2022-10-16T05:20:49.562Z,95515.38
2022-10-16T05:21:46.258Z,95522.41
2022-10-16T05:22:42.910Z,95492.34
2022-10-16T05:23:39.622Z,95511.38
2022-10-16T05:24:36.310Z,95444.22
2022-10-16T05:25:33.045Z,95451.72
2022-10-16T05:26:29.738Z,95470.38
2022-10-16T05:27:26.783Z,95511.94
2022-10-16T05:28:23.825Z,95506.25
2022-10-16T05:29:21.317Z,95450.22
2022-10-16T05:30:18.536Z,95531.19
2022-10-16T05:31:15.249Z,95529.53
2022-10-16T05:32:12.034Z,95535.59
2022-10-16T05:33:08.730Z,95479.63
2022-10-16T05:34:05.613Z,95412.28
2022-10-16T05:35:02.363Z,95518.22
2022-10-16T05:36:04.076Z,95519.84
2022-10-16T05:37:00.762Z,95509.25
2022-10-16T05:37:57.437Z,95480.25
2022-10-16T05:38:54.188Z,95532.31
2022-10-16T05:39:50.873Z,95542.91
2022-10-16T05:40:57.271Z,95528.28
2022-10-16T05:41:54.094Z,95551.31
2022-10-16T05:42:50.841Z,95495.69
2022-10-16T05:43:47.565Z,95526.91
2022-10-16T05:44:44.286Z,95468.78
2022-10-16T05:45:40.980Z,95492.78
2022-10-16T05:46:37.977Z,95531.53
2022-10-16T05:47:34.657Z,95423.94
2022-10-16T05:48:31.960Z,95532.03
2022-10-16T05:49:28.840Z,95548.41
2022-10-16T05:50:25.525Z,95528.53
2022-10-16T05:51:22.384Z,95451.53
2022-10-16T05:52:19.059Z,95540.81
2022-10-16T05:53:15.729Z,95538.13
2022-10-16T05:54:12.645Z,95392.16
2022-10-16T05:55:09.717Z,95544.63
2022-10-16T05:56:08.394Z,95526.69
2022-10-16T05:57:06.756Z,95482.41
2022-10-16T05:58:03.734Z,95514.00
2022-10-16T05:59:00.566Z,95428.34
2022-10-16T05:59:57.340Z,95453.31
2022-10-16T06:00:58.976Z,95556.59
2022-10-16T06:01:55.720Z,95551.31
2022-10-16T06:02:52.433Z,95526.25
2022-10-16T06:03:49.185Z,95566.81
2022-10-16T06:04:45.903Z,95556.41
2022-10-16T06:05:43.874Z,95454.88
2022-10-16T06:06:40.554Z,95487.50
2022-10-16T06:07:37.798Z,95546.09
2022-10-16T06:08:34.469Z,95559.53
2022-10-16T06:09:31.203Z,95554.44
2022-10-16T06:10:27.891Z,95579.59
2022-10-16T06:11:27.752Z,95569.84
2022-10-16T06:12:24.499Z,95552.16
2022-10-16T06:13:21.186Z,95563.19
2022-10-16T06:14:17.878Z,95574.91
2022-10-16T06:15:14.590Z,95577.13
2022-10-16T06:16:11.811Z,95579.78
2022-10-16T06:17:08.528Z,95465.19
2022-10-16T06:18:05.304Z,95585.25
2022-10-16T06:19:02.072Z,95541.25
2022-10-16T06:19:58.802Z,95570.78
2022-10-16T06:20:56.274Z,95494.81
2022-10-16T06:21:53.035Z,95509.63
2022-10-16T06:22:49.715Z,95582.97
2022-10-16T06:23:49.689Z,95571.16
2022-10-16T06:24:47.516Z,95500.13
2022-10-16T06:25:44.268Z,95588.06
2022-10-16T06:26:40.997Z,95543.03
2022-10-16T06:27:41.289Z,95579.81
2022-10-16T06:28:39.478Z,95555.75
2022-10-16T06:29:36.220Z,95534.00
2022-10-16T06:30:32.942Z,95578.59
2022-10-16T06:31:32.111Z,95564.53
2022-10-16T06:32:28.935Z,95548.31
2022-10-16T06:33:25.639Z,95497.34
2022-10-16T06:34:22.436Z,95413.59
2022-10-16T06:35:19.144Z,95582.66
2022-10-16T06:36:18.261Z,95579.41
2022-10-16T06:37:14.986Z,95583.28
2022-10-16T06:38:11.690Z,95579.94
2022-10-16T06:39:08.665Z,95601.50
2022-10-16T06:40:05.925Z,95587.19
2022-10-16T06:41:02.609Z,95538.91
2022-10-16T06:42:57.013Z,95593.56
2022-10-16T06:43:53.820Z,95529.44
2022-10-16T06:44:50.483Z,95600.44
2022-10-16T06:45:55.858Z,95592.41
2022-10-16T06:46:52.638Z,95531.16
2022-10-16T06:47:49.447Z,95401.22
2022-10-16T06:48:46.534Z,95575.16
2022-10-16T06:49:43.203Z,95618.50
2022-10-16T06:50:39.891Z,95608.53
2022-10-16T06:51:40.497Z,95596.47
2022-10-16T06:52:39.765Z,95472.03
2022-10-16T06:54:01.125Z,95582.50
2022-10-16T06:54:55.818Z,95443.00
2022-10-16T06:55:52.557Z,95564.78
2022-10-16T06:56:49.251Z,95586.97
2022-10-16T06:57:48.773Z,95562.28
2022-10-16T06:58:46.743Z,95556.25
2022-10-16T06:59:46.852Z,95618.09
2022-10-16T07:00:43.775Z,95619.00
2022-10-16T07:01:40.868Z,95571.03
2022-10-16T07:02:37.577Z,95430.06
2022-10-16T07:03:37.859Z,95622.78
2022-10-16T07:04:34.534Z,95622.06
2022-10-16T07:05:31.232Z,95622.09
2022-10-16T07:06:31.439Z,95628.97
2022-10-16T07:07:28.195Z,95609.47
2022-10-16T07:08:24.878Z,95621.25
2022-10-16T07:09:21.619Z,95541.47
2022-10-16T07:10:18.409Z,95627.13
2022-10-16T07:11:18.356Z,95606.69
2022-10-16T07:12:15.036Z,95592.47
2022-10-16T07:13:14.755Z,95632.84
2022-10-16T07:14:20.418Z,95618.38
2022-10-16T07:15:17.119Z,95623.88
2022-10-16T07:16:19.618Z,95612.34
2022-10-16T07:17:16.320Z,95604.63
2022-10-16T07:18:13.049Z,95573.19
2022-10-16T07:19:09.874Z,95634.88
2022-10-16T07:20:07.242Z,95636.53
2022-10-16T07:21:06.255Z,95611.38
2022-10-16T07:22:04.073Z,95637.53
2022-10-16T07:23:00.862Z,95601.44
2022-10-16T07:24:00.431Z,95613.88
2022-10-16T07:24:57.411Z,95628.91
2022-10-16T07:25:57.087Z,95515.28
2022-10-16T07:26:53.930Z,95624.28
2022-10-16T07:27:50.808Z,95566.13
2022-10-16T07:28:47.762Z,95621.63
2022-10-16T07:29:44.589Z,95596.53
2022-10-16T07:30:41.328Z,95617.59
2022-10-16T07:31:38.926Z,95617.97
2022-10-16T07:32:35.611Z,95517.03
2022-10-16T07:33:33.091Z,95641.09
2022-10-16T07:34:29.794Z,95622.13
2022-10-16T07:35:26.487Z,95632.47
2022-10-16T07:36:23.422Z,95642.44
2022-10-16T07:37:20.211Z,95649.34
2022-10-16T07:38:17.118Z,95627.22
2022-10-16T07:39:13.855Z,95621.72
2022-10-16T07:40:10.802Z,95631.75
2022-10-16T07:41:10.180Z,95571.47
2022-10-16T07:42:07.111Z,95654.44
2022-10-16T07:43:06.341Z,95592.16
2022-10-16T07:44:04.494Z,95633.09
2022-10-16T07:45:01.195Z,95584.00
2022-10-16T07:45:59.152Z,95652.97
2022-10-16T07:46:58.719Z,95571.88
2022-10-16T07:47:56.350Z,95643.69
2022-10-16T07:48:53.462Z,95487.97
2022-10-16T07:49:50.188Z,95645.72
2022-10-16T07:50:46.934Z,95545.53
2022-10-16T07:51:43.970Z,95545.75
2022-10-16T07:52:40.727Z,95531.94
2022-10-16T07:53:37.468Z,95646.53
2022-10-16T07:54:34.222Z,95558.13
2022-10-16T07:55:30.906Z,95638.00
2022-10-16T07:56:27.634Z,95630.84
2022-10-16T07:57:24.524Z,95665.78
2022-10-16T07:58:21.670Z,95588.91
2022-10-16T07:59:18.496Z,95625.44
2022-10-16T08:00:15.342Z,95641.00
2022-10-16T08:01:15.417Z,95657.63
2022-10-16T08:02:12.146Z,95648.28
2022-10-16T08:03:09.891Z,95647.06
2022-10-16T08:04:07.011Z,95596.19
2022-10-16T08:05:03.924Z,95662.50
2022-10-16T08:06:01.803Z,95654.16
2022-10-16T08:06:58.529Z,95643.75
2022-10-16T08:07:55.269Z,95644.78
2022-10-16T08:08:52.409Z,95613.56
2022-10-16T08:09:52.697Z,95641.75
2022-10-16T08:10:49.401Z,95585.63
2022-10-16T08:11:46.180Z,95638.69
2022-10-16T08:12:42.890Z,95622.44
2022-10-16T08:13:39.615Z,95622.44
2022-10-16T08:14:36.316Z,95608.22
2022-10-16T08:15:33.061Z,95636.78
2022-10-16T08:16:29.761Z,95632.47
2022-10-16T08:17:26.719Z,95632.47
2022-10-16T08:18:24.371Z,95644.25
2022-10-16T08:19:21.075Z,95596.34
2022-10-16T08:20:17.806Z,95582.53
2022-10-16T08:21:21.572Z,95561.47
2022-10-16T08:22:18.547Z,95625.63
2022-10-16T08:23:15.430Z,95625.81
2022-10-16T08:24:12.126Z,95618.59
2022-10-16T08:25:09.129Z,95638.19
2022-10-16T08:26:08.197Z,95626.53
2022-10-16T08:27:05.014Z,95658.25
2022-10-16T08:28:01.701Z,95642.41
2022-10-16T08:28:58.560Z,95628.34
2022-10-16T08:29:55.352Z,95618.84
2022-10-16T08:30:52.185Z,95641.63
2022-10-16T08:31:48.925Z,95655.47
2022-10-16T08:32:45.845Z,95591.28
2022-10-16T08:33:47.532Z,95587.53
2022-10-16T08:34:44.271Z,95617.13
2022-10-16T08:35:41.157Z,95618.81
2022-10-16T08:36:38.858Z,95616.59
2022-10-16T08:37:35.828Z,95635.97
2022-10-16T08:38:33.124Z,95628.88
2022-10-16T08:39:29.873Z,95633.94
2022-10-16T08:40:32.224Z,95534.03
2022-10-16T08:41:47.895Z,95619.22
2022-10-16T08:43:31.639Z,95587.84
2022-10-16T08:44:34.491Z,95621.72
2022-10-16T08:45:46.076Z,95619.59
2022-10-16T08:46:57.976Z,95620.59
2022-10-16T08:48:01.444Z,95617.38
2022-10-16T08:49:01.407Z,95611.41
2022-10-16T08:50:02.885Z,95631.88
2022-10-16T08:51:02.267Z,95499.75
2022-10-16T08:51:59.603Z,95638.63
2022-10-16T08:52:57.830Z,95627.34
2022-10-16T08:54:23.978Z,95647.41
2022-10-16T08:55:45.438Z,95628.13
2022-10-16T08:56:42.176Z,95642.88
2022-10-16T08:57:38.891Z,95652.25
2022-10-16T08:58:35.608Z,95640.19
2022-10-16T08:59:32.635Z,95622.00
2022-10-16T09:00:31.047Z,95636.50
2022-10-16T09:01:48.461Z,95640.19
2022-10-16T09:02:56.328Z,95630.34
2022-10-16T09:04:29.954Z,95632.47
2022-10-16T09:05:29.400Z,95627.09
2022-10-16T09:06:45.231Z,95630.78
2022-10-16T09:08:15.628Z,95629.31
2022-10-16T09:09:37.179Z,95626.06
2022-10-16T09:10:39.918Z,95630.63
2022-10-16T09:11:51.835Z,95631.72
2022-10-16T09:13:09.823Z,95574.28
2022-10-16T09:14:26.672Z,95632.53
2022-10-16T09:15:23.467Z,95621.53
2022-10-16T09:16:32.103Z,95636.44
2022-10-16T09:17:53.018Z,95618.31
2022-10-16T09:18:56.318Z,95614.88
2022-10-16T09:19:58.684Z,95647.22
2022-10-16T09:21:20.601Z,95634.56
2022-10-16T09:22:19.241Z,95567.03
2022-10-16T09:23:25.696Z,95622.94
2022-10-16T09:24:29.353Z,95632.22
2022-10-16T09:25:26.603Z,95636.19
2022-10-16T09:27:21.505Z,95632.25
2022-10-16T09:28:19.868Z,95637.91
2022-10-16T09:29:21.026Z,95624.44
2022-10-16T09:30:20.189Z,95642.63
2022-10-16T09:31:20.706Z,95533.31
2022-10-16T09:32:21.771Z,95629.25
2022-10-16T09:33:23.193Z,95633.31
2022-10-16T09:34:33.775Z,95619.81
2022-10-16T09:35:40.805Z,95631.78
2022-10-16T09:36:44.542Z,95557.91
2022-10-16T09:37:45.585Z,95582.66
2022-10-16T09:38:42.436Z,95581.09
2022-10-16T09:39:47.303Z,95608.28
2022-10-16T09:40:44.014Z,95646.25
2022-10-16T09:41:44.968Z,95627.16
2022-10-16T09:42:42.131Z,95639.72
2022-10-16T09:43:50.703Z,95674.47
2022-10-16T09:44:54.674Z,95645.78
2022-10-16T09:46:07.677Z,95619.91
2022-10-16T09:47:05.254Z,95614.84
2022-10-16T09:48:11.203Z,95584.56
2022-10-16T09:49:27.912Z,95636.50
2022-10-16T09:50:29.593Z,95624.72
2022-10-16T09:51:27.960Z,95615.50
2022-10-16T09:52:25.259Z,95614.25
2022-10-16T09:53:23.694Z,95607.22
2022-10-16T09:54:22.499Z,95528.59
2022-10-16T09:55:19.857Z,95623.13
2022-10-16T09:56:26.910Z,95526.06
2022-10-16T09:57:25.584Z,95604.09
2022-10-16T09:58:26.882Z,95619.91
2022-10-16T09:59:29.158Z,95612.63
2022-10-16T10:00:26.563Z,95409.09
2022-10-16T10:01:30.746Z,95630.75
2022-10-16T10:02:39.206Z,95619.91
2022-10-16T10:03:41.020Z,95624.06
2022-10-16T10:04:50.285Z,95519.63
2022-10-16T10:05:50.037Z,95548.09
2022-10-16T10:06:51.407Z,95605.47
2022-10-16T10:07:57.382Z,95545.31
2022-10-16T10:09:05.992Z,95573.72
2022-10-16T10:10:06.403Z,95611.94
2022-10-16T10:11:03.269Z,95590.13
2022-10-16T10:12:00.659Z,95584.16
2022-10-16T10:12:58.266Z,95612.66
2022-10-16T10:14:07.367Z,95565.22
2022-10-16T10:15:20.789Z,95616.00
2022-10-16T10:16:25.303Z,95616.94
2022-10-16T10:17:31.482Z,95619.22
2022-10-16T10:18:28.242Z,95611.25
2022-10-16T10:19:28.000Z,95546.63
2022-10-16T10:20:33.743Z,95614.97
2022-10-16T10:21:33.606Z,95435.25
2022-10-16T10:22:32.166Z,95594.56
2022-10-16T10:23:33.687Z,95593.59
2022-10-16T10:24:30.576Z,95615.31
2022-10-16T10:25:47.468Z,95595.34
2022-10-16T10:27:07.854Z,95597.63
2022-10-16T10:28:22.738Z,95582.53
2022-10-16T10:29:30.906Z,95602.25
2022-10-16T10:30:31.363Z,95587.72
2022-10-16T10:31:39.947Z,95599.66
2022-10-16T10:32:57.151Z,95591.66
2022-10-16T10:34:22.736Z,95564.63
2022-10-16T10:35:28.395Z,95578.59
2022-10-16T10:36:38.611Z,95578.72
2022-10-16T10:37:50.595Z,95569.59
2022-10-16T10:38:50.286Z,95563.81
2022-10-16T10:40:02.388Z,95508.56
2022-10-16T10:41:20.823Z,95569.47
2022-10-16T10:42:24.879Z,95567.84
2022-10-16T10:43:24.524Z,95561.41
2022-10-16T10:44:46.104Z,95566.09
2022-10-16T10:45:48.251Z,95590.50
2022-10-16T10:46:56.808Z,95564.28
2022-10-16T10:48:22.432Z,95532.09
2022-10-16T10:49:33.985Z,95560.44
2022-10-16T10:50:53.630Z,95562.44
2022-10-16T10:52:18.401Z,95562.53
2022-10-16T10:53:53.913Z,95564.25
2022-10-16T10:55:03.500Z,95546.63
2022-10-16T10:56:27.752Z,95532.22
2022-10-16T10:58:52.564Z,95560.09
2022-10-16T11:00:05.764Z,95554.34
2022-10-16T11:01:07.884Z,95560.56
2022-10-16T11:02:04.540Z,95559.59
2022-10-16T11:03:13.417Z,95546.25
2022-10-16T11:04:37.363Z,95556.69
2022-10-16T11:06:16.195Z,95549.06
2022-10-16T11:07:35.859Z,95545.16
2022-10-16T11:08:49.340Z,95534.66
2022-10-16T11:09:53.074Z,95435.72
2022-10-16T11:11:04.920Z,95545.75
2022-10-16T11:12:22.507Z,95552.25
2022-10-16T11:13:44.364Z,95505.16
2022-10-16T11:14:43.723Z,95551.75
2022-10-16T11:15:44.696Z,95563.69
2022-10-16T11:16:58.419Z,95556.38
2022-10-16T11:18:04.141Z,95547.91
2022-10-16T11:19:10.569Z,95561.53
2022-10-16T11:20:20.861Z,95536.47
2022-10-16T11:21:21.826Z,95480.28
2022-10-16T11:22:24.316Z,95538.94
2022-10-16T11:23:34.741Z,95540.66
2022-10-16T11:24:43.920Z,95467.66
2022-10-16T11:25:40.656Z,95553.00
2022-10-16T11:26:44.808Z,95425.81
2022-10-16T11:28:32.325Z,95537.63
2022-10-16T11:29:34.393Z,95541.97
2022-10-16T11:30:40.118Z,95471.94
2022-10-16T11:31:45.757Z,95564.59
2022-10-16T11:33:09.785Z,95544.25
2022-10-16T11:34:37.643Z,95538.09
2022-10-16T11:35:44.782Z,95540.84
2022-10-16T11:36:53.943Z,95523.75
2022-10-16T11:37:57.540Z,95522.00
2022-10-16T11:39:18.148Z,95537.31
2022-10-16T11:40:27.154Z,95559.25
2022-10-16T11:41:43.623Z,95535.38
2022-10-16T11:42:52.950Z,95545.97
2022-10-16T11:44:23.457Z,95537.72
2022-10-16T11:45:37.167Z,95532.16
2022-10-16T11:46:58.290Z,95560.97
2022-10-16T11:48:20.767Z,95536.06
2022-10-16T11:49:25.151Z,95545.75
2022-10-16T11:50:39.668Z,95554.13
2022-10-16T11:51:49.723Z,95540.66
2022-10-16T11:53:10.876Z,95538.31
2022-10-16T11:54:36.618Z,95535.75
2022-10-16T11:55:46.966Z,95561.34
2022-10-16T11:56:48.720Z,95553.13
2022-10-16T11:58:03.956Z,95555.41
2022-10-16T11:59:34.527Z,95524.59
2022-10-16T12:00:54.135Z,95534.00
2022-10-16T12:02:18.558Z,95535.69
2022-10-16T12:03:40.967Z,95519.00
2022-10-16T12:05:00.619Z,95537.16
2022-10-16T12:06:12.132Z,95536.41